Domov               UVHVVR             MKGP            O straneh              
ZDRAVSTVENO VARSTVO RASTLIN
  MREŽA AGROMET. POSTAJ
 ► PROGNOSTIČNA OBVESTILA
AGROMETEOROLOŠKI PODATKI -
ARSO
OBVLADOVANJE TVEGANJ ZARADI
NEUGODNIH VREMENSKIH RAZMER
  ► NARAVNE NESREČE
  ► SUŠA/MOČA
  ► NAMAKANJE
  ► ŽLED (gozdarstvo)
KARTOGRAFSKI PRIKAZI
SPLETNE POVEZAVE
PROJEKTI IN PUBLIKACIJE

AGROMETEOROLOŠKA MREŽA: VREMENSKE POSTAJE IN FENOLOŠKA OPAZOVANJA

Pregled podatkov za lokacijo Braslovče (Pšaker), meteorološka postaja 39323

Pregled senzorjev na lokaciji

ID Ime Zadnja
vrednost
Datum
zadnje
spremembe
Tip
senzorja
1914 Temperatura 2 m ( °C) 21,22 °C 19.10.2017 15:29 50YA
1915 Relativna vlaga 2 m (% RH) 44,84 % RH 19.10.2017 15:29 50YA
2040 Padavine 0.2 mm (mm) 0 mm 19.10.2017 15:30 Rain-O-Matic
2041 Omočenost lista (U) 0 U 19.10.2017 15:30 A730WET

Pregled podatkov zadnjih 24 ur

Zap.
št.
Datum in čas Braslovče (Pšaker)
Omočenost
lista
Padavine
0.2
mm
Relativna
vlaga
2
m
Temperatura
2
m
0 19.10.2017 14:30 0 0 44,84 21,22
1 19.10.2017 14:00 0 0 45,23 21,61
2 19.10.2017 13:30 0 0 43 22,08
3 19.10.2017 13:00 0 0 44,93 21,66
4 19.10.2017 12:30 0 0 45,01 20,71
5 19.10.2017 12:00 0 0 44,44 19,8
6 19.10.2017 11:30 0 0 47,13 19,07
7 19.10.2017 11:00 0 0 50,01 18,27
8 19.10.2017 10:30 0 0 55,34 16,75
9 19.10.2017 10:00 10 0 57,88 15,82
10 19.10.2017 09:30 10 0 63,61 14,11
11 19.10.2017 09:00 10 0 71,89 11,79
12 19.10.2017 08:30 10 0 81,32 9,69
13 19.10.2017 08:00 10 0 90,7 7,33
14 19.10.2017 07:30 10 0 99,58 4,54
15 19.10.2017 07:00 10 0 99,93 3,64
16 19.10.2017 06:30 10 0 99,93 3,61
17 19.10.2017 06:00 10 0 99,93 3,91
18 19.10.2017 05:30 10 0 99,93 4,08
19 19.10.2017 05:00 10 0 99,93 4,27
20 19.10.2017 04:30 10 0 99,93 4,59
21 19.10.2017 04:00 10 0 99,93 4,86
22 19.10.2017 03:30 10 0 99,88 5,05
23 19.10.2017 03:00 10 0 99,61 5,25
24 19.10.2017 02:30 10 0 99,22 5,49
25 19.10.2017 02:00 10 0 99,05 5,81
26 19.10.2017 01:30 10 0 98,51 6,06
27 19.10.2017 01:00 10 0 98,07 6,45
28 19.10.2017 00:30 10 0 97,14 6,86
29 19.10.2017 00:00 10 0 96,51 7,25
30 18.10.2017 23:30 3 0 95,12 7,77
31 18.10.2017 23:00 1 0 92,97 8,35
32 18.10.2017 22:30 0 0 89,38 9,18
33 18.10.2017 22:00 0 0 84,54 10,18
34 18.10.2017 21:30 0 0 75,51 11,99
35 18.10.2017 21:00 0 0 68,23 13,58
36 18.10.2017 20:30 0 0 80,54 11,23
37 18.10.2017 20:00 0 0 81,07 11,14
38 18.10.2017 19:30 0 0 77,9 11,43
39 18.10.2017 19:00 0 0 74,19 12,06
40 18.10.2017 18:30 0 0 70,23 12,84
41 18.10.2017 18:00 0 0 66,79 14,07
42 18.10.2017 17:30 0 0 60,27 15,31
43 18.10.2017 17:00 0 0 52,65 17,26
44 18.10.2017 16:30 0 0 44,37 19,32
© 2011 Ministrstvo za kmetijstvo, gozdarstvo in prehrano. Vse pravice pridržane.